Time;durP1;ratioP1;P1;durP2;ratioP2;P2;SDS_P1;SDS_P2;PMS_P1;PMS_P2;Temp;Humidity;BMP_temperature;BMP_pressure;BME280_temperature;BME280_humidity;BME280_pressure;Samples;Min_cycle;Max_cycle;Signal;HPM_P1;HPM_P2
2021/07/25 00:01:07;;;;;;;12.15;10.40;;;25.00;74.60;;;;;;4995863;28;20076;-61
2021/07/25 00:03:33;;;;;;;12.73;11.05;;;25.00;74.80;;;;;;4996521;28;20031;-61
2021/07/25 00:06:00;;;;;;;12.23;10.90;;;24.90;75.10;;;;;;4995979;28;20030;-61
2021/07/25 00:08:27;;;;;;;12.23;10.95;;;24.80;75.70;;;;;;4995820;28;20053;-61
2021/07/25 00:10:54;;;;;;;12.88;10.65;;;24.80;76.00;;;;;;4995397;28;20057;-61
2021/07/25 00:13:20;;;;;;;12.23;10.93;;;24.80;76.00;;;;;;4995013;28;20026;-61
2021/07/25 00:15:47;;;;;;;17.63;11.55;;;24.80;76.00;;;;;;4995784;28;20054;-61
2021/07/25 00:18:13;;;;;;;14.68;12.30;;;24.70;76.20;;;;;;4995601;28;20034;-61
2021/07/25 00:20:40;;;;;;;14.35;12.80;;;24.70;76.30;;;;;;5027024;28;20053;-61
2021/07/25 00:23:07;;;;;;;14.48;12.35;;;24.60;77.10;;;;;;4995417;28;20470;-61
2021/07/25 00:25:35;;;;;;;13.63;12.32;;;24.60;77.60;;;;;;4995789;28;20034;-61
2021/07/25 00:28:06;;;;;;;14.52;12.73;;;24.60;77.60;;;;;;4994999;28;20027;-61
2021/07/25 00:30:33;;;;;;;13.45;12.05;;;24.60;77.80;;;;;;5010251;28;20041;-61
2021/07/25 00:33:01;;;;;;;13.70;10.98;;;24.50;78.10;;;;;;4995347;28;20050;-61
2021/07/25 00:35:28;;;;;;;14.25;11.90;;;24.40;78.70;;;;;;4995591;28;20057;-61
2021/07/25 00:37:54;;;;;;;13.18;11.77;;;24.50;79.50;;;;;;4994450;28;20042;-61
2021/07/25 00:40:40;;;;;;;12.27;10.80;;;24.50;78.20;;;;;;4995809;28;20526;-61
2021/07/25 00:43:07;;;;;;;13.93;11.82;;;24.60;78.00;;;;;;4995766;28;20026;-61
2021/07/25 00:45:35;;;;;;;13.30;11.25;;;24.60;78.00;;;;;;4995342;28;20041;-60
2021/07/25 00:48:03;;;;;;;12.38;11.07;;;24.60;77.80;;;;;;4994714;28;20046;-61
2021/07/25 00:50:30;;;;;;;13.35;11.23;;;24.50;77.90;;;;;;4994883;28;20368;-61
2021/07/25 00:52:56;;;;;;;14.32;11.90;;;24.50;77.80;;;;;;4995113;28;20030;-61
2021/07/25 00:55:23;;;;;;;11.88;10.60;;;24.50;78.60;;;;;;4995409;28;20049;-61
2021/07/25 00:57:52;;;;;;;13.32;11.95;;;24.40;79.00;;;;;;4995515;28;20039;-60
2021/07/25 01:00:19;;;;;;;13.15;11.13;;;24.40;79.20;;;;;;5009779;28;20034;-60
2021/07/25 01:03:00;;;;;;;15.45;11.98;;;24.40;78.80;;;;;;4995317;28;20034;-61
2021/07/25 01:05:55;;;;;;;14.15;11.95;;;24.30;79.40;;;;;;4995139;28;20379;-61
2021/07/25 01:08:38;;;;;;;15.55;12.77;;;24.20;79.70;;;;;;5009771;28;20045;-61
2021/07/25 01:11:06;;;;;;;13.40;11.82;;;24.20;80.10;;;;;;4994536;28;20038;-61
2021/07/25 01:13:37;;;;;;;13.32;11.93;;;24.30;79.70;;;;;;4992698;28;20045;-61
2021/07/25 01:16:04;;;;;;;13.75;12.35;;;24.30;79.70;;;;;;4994931;28;20491;-61
2021/07/25 01:18:31;;;;;;;12.75;10.43;;;24.30;79.60;;;;;;4995173;28;20049;-61
2021/07/25 01:20:57;;;;;;;14.93;11.40;;;24.40;79.50;;;;;;4994713;28;20061;-61
2021/07/25 01:23:24;;;;;;;12.38;11.10;;;24.40;79.00;;;;;;4994735;28;20383;-63
2021/07/25 01:25:55;;;;;;;13.82;11.43;;;24.40;79.00;;;;;;4994692;28;20053;-61
2021/07/25 01:28:25;;;;;;;12.07;10.88;;;24.40;78.70;;;;;;4995086;28;20041;-61
2021/07/25 01:31:00;;;;;;;12.00;10.88;;;24.30;79.00;;;;;;4994759;28;20470;-61
2021/07/25 01:33:31;;;;;;;12.27;10.50;;;24.30;79.10;;;;;;4994370;28;20503;-61
2021/07/25 01:35:58;;;;;;;12.38;11.13;;;24.40;78.90;;;;;;4994249;28;20041;-61
2021/07/25 01:38:26;;;;;;;14.85;12.25;;;24.40;78.80;;;;;;4994345;28;20042;-62
2021/07/25 01:41:10;;;;;;;12.35;10.95;;;24.40;79.10;;;;;;4994987;28;20383;-61
2021/07/25 01:43:39;;;;;;;13.48;11.65;;;24.40;79.00;;;;;;4994527;28;20467;-61
2021/07/25 01:46:07;;;;;;;12.38;10.30;;;24.40;79.00;;;;;;4992267;28;20483;-60
2021/07/25 01:48:36;;;;;;;14.13;10.85;;;24.40;78.20;;;;;;4993897;28;20089;-61
2021/07/25 01:51:03;;;;;;;13.60;10.57;;;24.50;77.30;;;;;;4994350;28;20050;-61
2021/07/25 01:53:29;;;;;;;14.57;12.00;;;24.50;77.10;;;;;;4994145;28;20030;-61
2021/07/25 01:55:55;;;;;;;13.20;10.60;;;24.50;76.70;;;;;;4993880;28;20045;-60
2021/07/25 01:58:22;;;;;;;13.82;11.27;;;24.50;76.90;;;;;;4993223;28;20046;-60
2021/07/25 02:00:49;;;;;;;12.68;10.05;;;24.50;76.90;;;;;;5009029;28;20019;-60
2021/07/25 02:03:23;;;;;;;12.98;11.18;;;24.50;76.40;;;;;;4993814;28;20038;-61
2021/07/25 02:05:50;;;;;;;12.30;11.02;;;24.40;76.60;;;;;;5008930;28;20046;-61
2021/07/25 02:08:17;;;;;;;12.25;9.90;;;24.40;76.50;;;;;;4993707;28;20450;-61
2021/07/25 02:10:51;;;;;;;14.20;10.63;;;24.50;76.40;;;;;;4992958;28;20530;-61
2021/07/25 02:13:19;;;;;;;13.23;10.27;;;24.50;76.20;;;;;;4993261;28;20053;-61
2021/07/25 02:15:46;;;;;;;11.93;10.43;;;24.40;76.50;;;;;;4993815;28;20471;-61
2021/07/25 02:18:13;;;;;;;18.15;13.65;;;24.30;76.90;;;;;;4993325;28;20042;-61
2021/07/25 02:20:43;;;;;;;11.77;10.40;;;24.40;76.80;;;;;;4993566;28;20050;-61
2021/07/25 02:23:10;;;;;;;11.45;10.25;;;24.40;76.60;;;;;;4993861;28;20034;-61
2021/07/25 02:25:38;;;;;;;11.90;10.70;;;24.40;76.70;;;;;;4993758;28;20050;-61
2021/07/25 02:28:08;;;;;;;12.13;10.32;;;24.40;76.70;;;;;;4993764;28;20034;-61
2021/07/25 02:30:35;;;;;;;13.70;11.20;;;24.40;76.30;;;;;;4991447;28;20038;-61
2021/07/25 02:33:02;;;;;;;12.20;10.95;;;24.30;76.70;;;;;;4993853;28;20038;-61
2021/07/25 02:35:29;;;;;;;12.05;10.85;;;24.20;76.90;;;;;;4993263;28;20046;-61
2021/07/25 02:37:55;;;;;;;12.80;10.05;;;24.30;76.70;;;;;;4993427;28;20049;-61
2021/07/25 02:40:23;;;;;;;14.38;10.85;;;24.40;76.30;;;;;;4993694;28;20034;-61
2021/07/25 02:42:50;;;;;;;12.23;10.88;;;24.30;76.50;;;;;;4993455;28;20035;-61
2021/07/25 02:45:17;;;;;;;12.57;10.35;;;24.20;76.80;;;;;;4991388;28;20038;-61
2021/07/25 02:47:43;;;;;;;11.68;10.52;;;24.20;77.30;;;;;;5024876;28;20053;-61
2021/07/25 02:50:10;;;;;;;12.32;11.13;;;24.20;77.20;;;;;;4992789;28;20043;-61
2021/07/25 02:52:37;;;;;;;14.57;10.60;;;24.10;77.60;;;;;;4993321;28;20050;-61
2021/07/25 02:55:05;;;;;;;12.85;11.55;;;24.00;78.50;;;;;;4993351;28;20026;-61
2021/07/25 02:57:31;;;;;;;15.38;11.57;;;23.80;80.40;;;;;;4992904;28;20046;-60
2021/07/25 02:59:57;;;;;;;12.35;10.90;;;23.80;80.50;;;;;;4993142;28;20030;-61
2021/07/25 03:02:27;;;;;;;12.80;11.43;;;23.90;79.90;;;;;;4993067;28;20061;-61
2021/07/25 03:04:54;;;;;;;13.07;11.70;;;24.10;79.30;;;;;;4993421;28;20033;-61
2021/07/25 03:07:21;;;;;;;14.70;12.23;;;24.10;79.10;;;;;;4992552;28;20030;-61
2021/07/25 03:09:47;;;;;;;15.25;13.65;;;24.20;79.00;;;;;;4993174;28;20046;-61
2021/07/25 03:12:14;;;;;;;15.63;13.95;;;24.10;79.10;;;;;;4992816;28;20031;-61
2021/07/25 03:14:40;;;;;;;18.65;15.73;;;24.10;79.60;;;;;;4993063;28;20395;-60
2021/07/25 03:17:07;;;;;;;17.13;15.25;;;23.90;80.60;;;;;;4992984;28;20043;-61
2021/07/25 03:19:33;;;;;;;17.70;15.90;;;23.90;81.20;;;;;;4993232;28;20030;-61
2021/07/25 03:22:04;;;;;;;25.85;17.80;;;23.80;81.70;;;;;;4992877;28;20045;-61
2021/07/25 03:24:31;;;;;;;21.83;18.25;;;23.90;81.40;;;;;;4992959;28;20041;-61
2021/07/25 03:26:58;;;;;;;20.13;17.52;;;23.80;81.80;;;;;;4992828;28;20046;-61
2021/07/25 03:29:24;;;;;;;20.38;18.27;;;23.90;81.40;;;;;;4992906;28;20463;-61
2021/07/25 03:31:51;;;;;;;22.63;20.27;;;23.90;81.20;;;;;;4991650;28;20046;-61
2021/07/25 03:34:17;;;;;;;21.27;18.77;;;24.00;81.00;;;;;;4992845;28;20037;-60
2021/07/25 03:36:44;;;;;;;21.65;19.45;;;23.90;81.20;;;;;;4992691;28;20042;-60
2021/07/25 03:39:19;;;;;;;19.10;17.20;;;23.90;80.90;;;;;;4992559;28;20029;-61
2021/07/25 03:41:46;;;;;;;21.70;19.40;;;23.90;80.70;;;;;;4992714;28;20066;-61
2021/07/25 03:44:12;;;;;;;22.35;19.10;;;23.90;80.90;;;;;;4992300;28;20043;-60
2021/07/25 03:46:39;;;;;;;20.20;18.13;;;23.90;81.10;;;;;;4992980;28;20030;-61
2021/07/25 03:49:07;;;;;;;20.95;18.80;;;23.90;80.90;;;;;;4992361;28;20026;-61
2021/07/25 03:51:35;;;;;;;20.35;17.50;;;23.90;80.40;;;;;;4992773;28;20034;-61
2021/07/25 03:54:04;;;;;;;20.77;18.23;;;23.90;80.30;;;;;;4992524;28;20046;-61
2021/07/25 03:56:31;;;;;;;21.25;18.70;;;23.90;80.30;;;;;;4992912;28;20054;-61
2021/07/25 03:58:57;;;;;;;19.85;17.73;;;23.90;80.10;;;;;;4992971;28;20031;-61
2021/07/25 04:01:24;;;;;;;21.60;18.25;;;23.90;80.20;;;;;;4992607;28;20497;-61
2021/07/25 04:03:50;;;;;;;19.50;16.95;;;23.90;80.00;;;;;;4992740;28;20035;-61
2021/07/25 04:06:17;;;;;;;19.50;17.50;;;23.90;80.20;;;;;;4990506;28;20046;-61
2021/07/25 04:08:43;;;;;;;20.48;17.23;;;23.90;80.10;;;;;;4990499;28;20476;-61
2021/07/25 04:11:19;;;;;;;21.58;19.25;;;23.90;80.20;;;;;;5007706;28;20030;-61
2021/07/25 04:13:46;;;;;;;18.88;16.88;;;23.70;80.90;;;;;;4992671;28;20037;-61
2021/07/25 04:16:13;;;;;;;18.90;16.77;;;23.60;82.20;;;;;;4992435;28;20059;-61
2021/07/25 04:18:40;;;;;;;22.25;18.10;;;23.60;81.70;;;;;;4992486;28;20054;-61
2021/07/25 04:21:06;;;;;;;17.63;15.77;;;23.70;81.50;;;;;;4991675;28;20042;-61
2021/07/25 04:23:33;;;;;;;19.25;17.23;;;23.70;82.00;;;;;;4995727;28;20491;-61
2021/07/25 04:26:00;;;;;;;19.33;16.50;;;23.70;82.30;;;;;;4996238;28;20042;-61
2021/07/25 04:28:26;;;;;;;17.95;16.15;;;23.70;82.60;;;;;;4996140;28;20034;-61
2021/07/25 04:30:53;;;;;;;20.20;17.25;;;23.70;82.70;;;;;;4996077;28;20030;-61
2021/07/25 04:33:21;;;;;;;20.27;18.17;;;23.70;82.60;;;;;;4995817;28;20022;-61
2021/07/25 04:35:47;;;;;;;18.83;16.92;;;23.70;82.60;;;;;;4995728;28;20045;-61
2021/07/25 04:38:14;;;;;;;18.77;15.18;;;23.70;82.70;;;;;;4995534;28;20058;-61
2021/07/25 04:40:44;;;;;;;19.15;17.15;;;23.70;82.80;;;;;;4995982;28;20038;-61
2021/07/25 04:43:14;;;;;;;19.20;17.13;;;23.50;83.80;;;;;;4995460;28;20031;-61
2021/07/25 04:46:10;;;;;;;;;;;23.50;83.90;;;;;;4996109;28;20039;-61
2021/07/25 04:49:05;;;;;;;21.88;18.02;;;23.50;84.70;;;;;;5001863;28;19917;-61
2021/07/25 04:51:35;;;;;;;20.98;18.77;;;23.40;85.00;;;;;;4997826;28;20490;-61
2021/07/25 04:54:05;;;;;;;;;;;23.30;84.80;;;;;;4995978;28;20026;-61
2021/07/25 04:56:58;;;;;;;18.15;16.35;;;23.40;83.90;;;;;;4995550;28;20270;-61
2021/07/25 04:59:31;;;;;;;19.50;17.40;;;23.50;83.20;;;;;;4995317;28;20043;-61
2021/07/25 05:02:06;;;;;;;17.13;15.02;;;23.60;82.50;;;;;;5010101;28;20047;-61
2021/07/25 05:04:33;;;;;;;18.15;16.23;;;23.70;81.70;;;;;;4995214;28;20490;-61
2021/07/25 05:07:00;;;;;;;19.73;16.27;;;23.50;82.30;;;;;;4994935;28;20033;-61
2021/07/25 05:09:28;;;;;;;17.33;15.50;;;23.40;83.30;;;;;;4994893;28;20035;-62
2021/07/25 05:12:10;;;;;;;21.02;16.60;;;23.50;82.90;;;;;;4995386;28;20027;-61
2021/07/25 05:14:59;;;;;;;19.08;16.30;;;23.60;82.50;;;;;;4995120;28;20399;-62
2021/07/25 05:17:59;;;;;;;19.48;17.50;;;23.70;82.60;;;;;;4994840;28;20364;-62
2021/07/25 05:20:33;;;;;;;22.42;18.70;;;23.50;83.50;;;;;;4994927;28;20038;-62
2021/07/25 05:23:20;;;;;;;17.45;15.65;;;23.40;84.40;;;;;;4994972;28;20030;-62
2021/07/25 05:25:54;;;;;;;19.45;17.10;;;23.50;84.40;;;;;;4994594;28;20039;-62
2021/07/25 05:28:43;;;;;;;18.40;16.50;;;23.50;84.40;;;;;;4995080;28;20034;-62
2021/07/25 05:31:10;;;;;;;19.95;17.85;;;23.50;84.70;;;;;;4993381;28;20037;-61
2021/07/25 05:33:36;;;;;;;20.90;17.05;;;23.50;85.40;;;;;;4994690;28;20033;-60
2021/07/25 05:36:03;;;;;;;20.23;17.20;;;23.50;84.80;;;;;;4994238;28;20053;-60
2021/07/25 05:38:29;;;;;;;18.65;16.67;;;23.60;84.10;;;;;;4994154;28;20046;-63
2021/07/25 05:40:56;;;;;;;18.85;16.42;;;23.70;83.80;;;;;;4994433;28;20034;-64
2021/07/25 05:43:22;;;;;;;18.27;16.38;;;23.70;83.90;;;;;;4994668;28;20042;-67
2021/07/25 05:45:49;;;;;;;18.70;14.68;;;23.40;85.50;;;;;;4994359;28;20498;-64
2021/07/25 05:48:15;;;;;;;18.23;16.30;;;23.40;85.70;;;;;;4994473;28;20037;-71
2021/07/25 05:50:41;;;;;;;20.88;18.08;;;23.40;86.00;;;;;;4994517;28;20034;-66
2021/07/25 05:53:08;;;;;;;16.77;15.07;;;23.10;87.40;;;;;;4994131;28;20120;-70
2021/07/25 05:55:35;;;;;;;19.00;16.13;;;23.30;87.10;;;;;;4994816;28;20038;-67
2021/07/25 05:58:02;;;;;;;19.70;17.65;;;23.30;86.60;;;;;;4994218;28;20038;-69
2021/07/25 06:00:29;;;;;;;17.60;15.65;;;23.50;86.40;;;;;;4994432;28;20035;-68
2021/07/25 06:03:00;;;;;;;19.52;16.90;;;23.50;86.30;;;;;;4993866;28;20042;-68
2021/07/25 06:05:35;;;;;;;22.80;16.48;;;23.60;86.00;;;;;;4994158;28;20472;-67
2021/07/25 06:08:05;;;;;;;20.70;17.33;;;23.70;85.00;;;;;;4993636;28;20046;-66
2021/07/25 06:10:32;;;;;;;19.85;16.60;;;23.70;85.00;;;;;;4994281;28;20525;-66
2021/07/25 06:13:02;;;;;;;23.35;16.63;;;23.90;84.70;;;;;;4994041;28;20038;-66
2021/07/25 06:15:30;;;;;;;19.00;14.83;;;24.10;83.30;;;;;;4993865;28;20062;-65
2021/07/25 06:17:57;;;;;;;15.10;13.52;;;24.60;80.40;;;;;;4993462;28;20046;-64
2021/07/25 06:20:23;;;;;;;17.88;15.40;;;24.50;79.80;;;;;;4993316;28;20333;-64
2021/07/25 06:22:52;;;;;;;17.73;14.27;;;24.20;81.30;;;;;;4992726;28;20031;-63
2021/07/25 06:25:27;;;;;;;14.75;13.00;;;24.00;82.10;;;;;;4992966;28;20042;-64
2021/07/25 06:27:58;;;;;;;15.40;13.82;;;24.10;82.70;;;;;;4991669;28;20045;-63
2021/07/25 06:30:26;;;;;;;18.52;14.52;;;24.20;82.10;;;;;;4991519;28;20038;-64
2021/07/25 06:33:07;;;;;;;16.13;14.35;;;24.10;82.10;;;;;;4991514;28;20042;-64
2021/07/25 06:35:40;;;;;;;16.80;14.38;;;23.90;82.60;;;;;;4993535;28;20498;-65
2021/07/25 06:38:09;;;;;;;15.60;13.95;;;23.60;84.60;;;;;;4992305;28;20402;-65
2021/07/25 06:40:37;;;;;;;18.13;15.73;;;23.90;83.00;;;;;;4993669;28;20030;-66
2021/07/25 06:43:05;;;;;;;15.00;12.30;;;24.00;82.60;;;;;;5008106;28;20420;-65
2021/07/25 06:45:32;;;;;;;14.52;12.95;;;24.00;82.70;;;;;;4993048;28;20049;-65
2021/07/25 06:47:59;;;;;;;17.65;15.48;;;24.30;82.40;;;;;;4993410;28;20038;-64
2021/07/25 06:50:28;;;;;;;15.45;13.77;;;24.30;81.80;;;;;;4993398;28;20027;-66
2021/07/25 06:52:56;;;;;;;18.88;13.15;;;24.30;82.10;;;;;;4993480;28;20038;-66
2021/07/25 06:55:24;;;;;;;16.02;13.73;;;24.50;81.30;;;;;;4993024;28;20037;-65
2021/07/25 06:57:52;;;;;;;18.73;13.65;;;24.70;80.50;;;;;;4993400;28;20050;-65
2021/07/25 07:00:19;;;;;;;21.35;15.80;;;24.70;80.70;;;;;;4993338;28;20037;-63
2021/07/25 07:02:49;;;;;;;16.00;14.25;;;24.30;82.40;;;;;;4993376;28;20498;-64
2021/07/25 07:05:24;;;;;;;17.02;13.85;;;24.40;82.20;;;;;;4993071;28;20034;-63
2021/07/25 07:07:52;;;;;;;16.98;15.18;;;24.70;80.80;;;;;;5035027;28;20041;-64
2021/07/25 07:10:22;;;;;;;17.73;14.65;;;24.90;79.90;;;;;;5012963;28;20052;-64
2021/07/25 07:12:50;;;;;;;15.27;13.68;;;24.90;80.00;;;;;;5007820;28;20058;-63
2021/07/25 07:15:18;;;;;;;17.52;12.90;;;24.90;80.60;;;;;;5006630;28;20406;-64
2021/07/25 07:17:47;;;;;;;16.38;13.05;;;25.00;79.30;;;;;;5009891;28;20053;-64
2021/07/25 07:20:13;;;;;;;15.82;14.23;;;25.00;78.90;;;;;;5010258;28;20041;-64
2021/07/25 07:22:40;;;;;;;16.45;14.15;;;24.90;79.30;;;;;;5011155;28;20052;-64
2021/07/25 07:25:08;;;;;;;17.13;13.77;;;24.80;80.20;;;;;;5011299;28;20045;-66
2021/07/25 07:27:36;;;;;;;17.95;13.55;;;24.90;79.70;;;;;;5011407;28;20045;-63
2021/07/25 07:30:03;;;;;;;18.13;15.90;;;25.10;78.60;;;;;;5011621;28;20042;-65
2021/07/25 07:32:34;;;;;;;15.10;13.13;;;25.00;79.20;;;;;;5012465;28;20382;-64
2021/07/25 07:35:00;;;;;;;15.02;13.15;;;25.30;78.50;;;;;;5012734;28;20034;-64
2021/07/25 07:37:27;;;;;;;13.98;12.40;;;25.50;77.30;;;;;;5012374;28;20057;-64
2021/07/25 07:39:58;;;;;;;15.73;13.90;;;25.70;76.10;;;;;;5012136;28;20034;-64
2021/07/25 07:42:25;;;;;;;15.65;13.10;;;25.80;75.50;;;;;;5012093;28;20042;-64
2021/07/25 07:44:51;;;;;;;16.90;13.35;;;25.60;76.20;;;;;;5012102;28;20049;-65
2021/07/25 07:47:19;;;;;;;15.48;12.98;;;25.60;76.40;;;;;;5012041;28;20052;-64
2021/07/25 07:49:46;;;;;;;14.93;13.32;;;25.70;76.10;;;;;;5012245;28;20377;-65
2021/07/25 07:52:12;;;;;;;17.27;15.10;;;25.80;75.20;;;;;;5012264;28;20148;-65
2021/07/25 07:54:39;;;;;;;19.88;14.85;;;25.80;75.40;;;;;;5012208;28;20041;-65
2021/07/25 07:57:05;;;;;;;16.42;14.75;;;25.70;75.70;;;;;;5012518;28;20402;-65
2021/07/25 07:59:32;;;;;;;16.95;13.57;;;25.70;75.60;;;;;;5014403;28;20038;-65
2021/07/25 08:01:59;;;;;;;17.80;13.63;;;25.60;75.90;;;;;;5014969;28;20054;-65
2021/07/25 08:04:26;;;;;;;18.67;14.13;;;25.70;75.20;;;;;;5014863;28;20042;-65
2021/07/25 08:06:52;;;;;;;17.60;13.07;;;25.80;74.10;;;;;;5014590;28;20048;-65
2021/07/25 08:09:19;;;;;;;16.83;14.52;;;26.00;74.50;;;;;;5013713;28;20030;-68
2021/07/25 08:11:46;;;;;;;14.48;12.93;;;26.20;73.00;;;;;;5014182;28;20378;-64
2021/07/25 08:14:13;;;;;;;14.85;11.98;;;26.30;72.00;;;;;;5014670;28;20057;-64
2021/07/25 08:16:41;;;;;;;15.10;11.63;;;26.50;71.60;;;;;;5016034;28;20030;-64
2021/07/25 08:19:09;;;;;;;14.15;12.68;;;26.70;70.40;;;;;;5015242;28;20072;-64
2021/07/25 08:21:36;;;;;;;15.90;12.75;;;26.70;69.20;;;;;;5015631;28;20037;-65
2021/07/25 08:24:03;;;;;;;15.13;13.55;;;26.90;69.30;;;;;;5015651;28;20043;-64
2021/07/25 08:26:29;;;;;;;16.70;13.00;;;26.80;69.70;;;;;;5015226;28;20037;-64
2021/07/25 08:29:03;;;;;;;18.85;14.13;;;26.80;69.80;;;;;;5017101;28;20038;-64
2021/07/25 08:31:30;;;;;;;16.80;13.95;;;26.70;68.00;;;;;;5014484;28;20458;-64
2021/07/25 08:33:57;;;;;;;19.00;13.63;;;26.60;68.50;;;;;;5024461;28;20041;-64
2021/07/25 08:36:23;;;;;;;15.65;14.05;;;26.60;69.10;;;;;;5033906;28;20026;-64
2021/07/25 08:38:51;;;;;;;15.80;13.27;;;26.60;69.30;;;;;;5035708;28;20358;-64
2021/07/25 08:41:42;;;;;;;16.92;15.10;;;26.70;69.70;;;;;;5034992;28;20366;-64
2021/07/25 08:44:30;;;;;;;15.35;13.85;;;26.60;70.10;;;;;;5034919;28;20041;-64
2021/07/25 08:46:57;;;;;;;16.63;14.60;;;26.50;71.20;;;;;;5034988;28;20049;-64
2021/07/25 08:49:55;;;;;;;18.65;14.80;;;26.60;70.80;;;;;;5034753;28;20029;-64
2021/07/25 08:52:27;;;;;;;15.63;13.98;;;26.60;70.40;;;;;;5034547;28;20032;-64
2021/07/25 08:54:55;;;;;;;18.75;16.25;;;26.70;70.30;;;;;;5035162;28;20045;-63
2021/07/25 08:57:25;;;;;;;16.20;13.75;;;26.90;69.40;;;;;;5034392;28;20033;-63
2021/07/25 08:59:54;;;;;;;16.75;14.80;;;27.10;69.50;;;;;;5035357;28;20462;-63
2021/07/25 09:02:27;;;;;;;16.50;14.80;;;27.00;69.50;;;;;;5022424;28;20386;-64
2021/07/25 09:04:55;;;;;;;18.77;16.05;;;27.10;69.40;;;;;;5014664;28;20371;-64
2021/07/25 09:07:30;;;;;;;15.20;13.30;;;27.20;68.60;;;;;;5013181;28;20041;-64
2021/07/25 09:10:06;;;;;;;17.48;14.05;;;27.30;68.30;;;;;;5015306;28;20030;-63
2021/07/25 09:12:33;;;;;;;17.92;14.63;;;27.60;67.40;;;;;;5015088;28;20053;-63
2021/07/25 09:15:06;;;;;;;16.60;14.93;;;27.50;67.90;;;;;;5014919;28;20057;-64
2021/07/25 09:17:33;;;;;;;18.98;15.32;;;27.50;68.00;;;;;;5014086;28;20038;-64
2021/07/25 09:20:18;;;;;;;15.68;13.95;;;27.40;67.30;;;;;;5014824;28;20037;-64
2021/07/25 09:23:13;;;;;;;17.08;15.30;;;27.20;68.90;;;;;;5014883;28;20034;-64
2021/07/25 09:25:47;;;;;;;14.95;13.45;;;27.30;68.40;;;;;;5013843;28;20052;-64
2021/07/25 09:28:36;;;;;;;15.68;14.07;;;27.50;68.20;;;;;;5014326;28;20034;-71
2021/07/25 09:31:13;;;;;;;19.40;15.88;;;27.60;67.40;;;;;;5014505;28;20046;-60
2021/07/25 09:33:45;;;;;;;20.27;15.93;;;27.50;67.70;;;;;;5014159;28;20506;-60
2021/07/25 09:36:21;;;;;;;16.77;14.98;;;27.40;67.60;;;;;;5014397;28;20033;-60
2021/07/25 09:38:49;;;;;;;16.67;14.38;;;27.30;67.80;;;;;;5014777;28;20042;-60
2021/07/25 09:41:20;;;;;;;17.80;15.60;;;27.30;68.50;;;;;;5013654;28;20050;-60
2021/07/25 09:43:59;;;;;;;19.10;15.32;;;27.20;68.90;;;;;;5014333;28;20046;-60
2021/07/25 09:46:25;;;;;;;16.50;14.90;;;27.20;69.00;;;;;;5013437;28;20045;-59
2021/07/25 09:48:58;;;;;;;18.85;14.73;;;27.30;68.40;;;;;;5014126;28;20049;-60
2021/07/25 09:51:26;;;;;;;20.05;12.93;;;27.20;66.60;;;;;;5014356;28;20030;-59
2021/07/25 09:53:53;;;;;;;23.38;13.13;;;27.30;67.00;;;;;;5013891;28;20054;-60
2021/07/25 09:56:24;;;;;;;18.80;13.00;;;27.40;66.80;;;;;;5013929;28;20030;-60
2021/07/25 09:58:51;;;;;;;17.27;15.57;;;27.60;65.70;;;;;;5028507;28;20422;-60
2021/07/25 10:01:42;;;;;;;16.60;13.93;;;27.50;66.10;;;;;;5029877;28;20049;-60
2021/07/25 10:04:12;;;;;;;21.25;15.25;;;27.30;67.60;;;;;;5029261;28;20041;-60
2021/07/25 10:06:43;;;;;;;;;;;27.40;68.20;;;;;;5029789;28;20049;-60
2021/07/25 10:09:12;;;;;;;15.93;13.88;;;27.40;68.20;;;;;;5029631;28;19916;-59
2021/07/25 10:11:58;;;;;;;16.65;14.07;;;27.60;67.40;;;;;;5029882;28;20903;-59
2021/07/25 10:14:29;;;;;;;15.32;13.75;;;27.60;67.60;;;;;;5025386;28;20514;-59
2021/07/25 10:16:59;;;;;;;16.08;14.38;;;27.70;66.10;;;;;;5009911;28;20046;-59
2021/07/25 10:19:42;;;;;;;16.67;14.20;;;26.90;69.20;;;;;;5010038;28;20054;-60
2021/07/25 10:22:12;;;;;;;13.95;12.40;;;27.30;68.10;;;;;;5009589;28;20272;-59
2021/07/25 10:24:40;;;;;;;16.77;12.70;;;27.60;67.20;;;;;;5012803;28;20497;-60
2021/07/25 10:27:08;;;;;;;14.52;12.90;;;27.60;65.90;;;;;;5011755;28;20376;-59
2021/07/25 10:29:38;;;;;;;15.07;12.65;;;27.90;64.70;;;;;;5013467;28;20045;-60
2021/07/25 10:32:07;;;;;;;14.77;13.27;;;28.00;64.30;;;;;;5013613;28;20045;-60
2021/07/25 10:34:37;;;;;;;14.93;12.57;;;28.10;63.40;;;;;;5013161;28;20061;-60
2021/07/25 10:37:05;;;;;;;14.80;12.60;;;28.00;62.60;;;;;;5013241;28;20042;-60
2021/07/25 10:39:35;;;;;;;14.57;13.05;;;28.00;63.80;;;;;;5044423;28;20394;-60
2021/07/25 10:42:03;;;;;;;14.48;12.95;;;28.10;63.50;;;;;;5013303;28;20042;-59
2021/07/25 10:44:30;;;;;;;19.13;11.90;;;28.10;63.80;;;;;;5012805;28;20034;-59
2021/07/25 10:47:28;;;;;;;14.20;12.35;;;28.30;62.60;;;;;;5013131;28;20042;-61
2021/07/25 10:50:01;;;;;;;14.70;13.10;;;28.30;61.80;;;;;;5012952;28;20029;-60
2021/07/25 10:52:49;;;;;;;14.23;12.80;;;27.90;62.40;;;;;;5013062;28;20042;-62
2021/07/25 10:55:34;;;;;;;12.93;11.60;;;28.00;61.40;;;;;;5012452;28;20030;-60
2021/07/25 10:58:03;;;;;;;17.75;13.98;;;28.30;60.10;;;;;;5013115;28;20045;-60
2021/07/25 11:00:45;;;;;;;15.65;13.32;;;27.90;63.20;;;;;;5012945;28;20401;-59
2021/07/25 11:03:29;;;;;;;14.32;12.88;;;28.00;63.40;;;;;;5013067;28;20375;-60
2021/07/25 11:06:01;;;;;;;13.98;12.48;;;28.20;62.60;;;;;;5011898;28;20054;-58
2021/07/25 11:08:43;;;;;;;15.10;13.57;;;28.40;62.50;;;;;;5012130;28;20487;-58
2021/07/25 11:11:39;;;;;;;19.30;13.10;;;27.90;63.70;;;;;;5012620;28;20034;-59
2021/07/25 11:14:07;;;;;;;16.30;14.10;;;27.70;66.10;;;;;;5012271;28;20069;-60
2021/07/25 11:16:34;;;;;;;14.98;13.23;;;27.60;66.70;;;;;;5012228;28;20038;-60
2021/07/25 11:19:04;;;;;;;14.35;12.60;;;27.60;66.00;;;;;;5012440;28;20045;-60
2021/07/25 11:21:43;;;;;;;15.23;13.60;;;27.70;64.30;;;;;;5012235;28;20414;-61
2021/07/25 11:24:22;;;;;;;13.68;12.18;;;28.00;63.40;;;;;;5012728;28;20050;-61
2021/07/25 11:26:57;;;;;;;15.25;12.02;;;28.10;62.70;;;;;;5012069;28;20045;-61
2021/07/25 11:29:33;;;;;;;15.80;13.18;;;28.20;61.40;;;;;;5012621;28;20034;-60
2021/07/25 11:32:00;;;;;;;16.35;13.57;;;28.20;60.20;;;;;;5014458;28;20498;-61
2021/07/25 11:34:36;;;;;;;17.25;13.55;;;28.20;59.30;;;;;;5016717;28;20050;-58
2021/07/25 11:37:08;;;;;;;13.48;12.10;;;28.10;59.70;;;;;;5015769;28;20486;-60
2021/07/25 11:39:35;;;;;;;14.93;10.57;;;28.60;59.00;;;;;;5015628;28;20069;-60
2021/07/25 11:42:06;;;;;;;12.25;11.02;;;28.70;58.60;;;;;;5016222;28;20042;-60
2021/07/25 11:44:33;;;;;;;12.98;11.63;;;28.80;58.60;;;;;;5017283;28;20038;-61
2021/07/25 11:47:07;;;;;;;12.68;11.35;;;28.90;57.80;;;;;;5015836;28;20046;-60
2021/07/25 11:49:38;;;;;;;12.70;11.40;;;28.80;57.10;;;;;;5015634;28;20049;-58
2021/07/25 11:52:17;;;;;;;16.10;10.98;;;28.70;57.20;;;;;;5015689;28;20355;-58
2021/07/25 11:54:44;;;;;;;15.55;11.20;;;28.90;57.30;;;;;;5016192;28;20053;-58
2021/07/25 11:57:12;;;;;;;12.20;10.82;;;28.80;57.40;;;;;;5016012;28;20475;-58
2021/07/25 11:59:53;;;;;;;17.05;11.40;;;28.70;57.80;;;;;;5015602;28;20049;-58
2021/07/25 12:02:38;;;;;;;14.48;12.35;;;28.80;57.60;;;;;;5016108;28;20053;-61
2021/07/25 12:05:06;;;;;;;19.88;11.43;;;28.90;58.10;;;;;;5015821;28;20057;-58
2021/07/25 12:07:34;;;;;;;15.20;10.68;;;29.10;57.60;;;;;;5015832;28;20038;-58
2021/07/25 12:10:03;;;;;;;14.35;10.45;;;29.20;57.40;;;;;;5015966;28;20042;-59
2021/07/25 12:12:36;;;;;;;12.90;10.75;;;29.10;57.80;;;;;;5015476;28;20421;-61
2021/07/25 12:15:09;;;;;;;13.35;9.98;;;29.00;58.40;;;;;;5015455;28;20054;-60
2021/07/25 12:17:39;;;;;;;13.70;11.30;;;28.90;58.90;;;;;;5015930;28;20029;-60
2021/07/25 12:20:19;;;;;;;15.18;11.18;;;28.80;59.10;;;;;;5014904;28;20430;-58
2021/07/25 12:22:56;;;;;;;16.05;10.48;;;29.00;58.90;;;;;;5015412;28;20050;-57
2021/07/25 12:25:30;;;;;;;12.57;10.85;;;28.90;59.20;;;;;;5015381;28;20033;-58
2021/07/25 12:28:15;;;;;;;13.75;9.85;;;28.90;59.10;;;;;;5015641;28;20042;-58
2021/07/25 12:30:47;;;;;;;12.25;9.65;;;28.70;59.40;;;;;;5015284;28;20045;-58
2021/07/25 12:33:15;;;;;;;11.13;9.65;;;28.80;59.30;;;;;;5015131;28;20042;-58
2021/07/25 12:35:42;;;;;;;13.73;10.57;;;28.90;59.50;;;;;;5015209;28;20072;-60
2021/07/25 12:38:10;;;;;;;14.48;10.30;;;28.80;59.90;;;;;;5014788;28;20483;-60
2021/07/25 12:40:53;;;;;;;17.55;10.15;;;28.80;60.20;;;;;;5014816;28;20057;-60
2021/07/25 12:43:24;;;;;;;14.63;11.13;;;28.80;60.40;;;;;;5014617;28;20056;-61
2021/07/25 12:45:52;;;;;;;16.48;11.82;;;29.00;62.00;;;;;;5014657;28;20041;-62